Houlton, ME

11:35 AM EDT on April 25, 2015 (GMT -0400)
Houlton International | | Change Station
CLOSE
Current Station
Airport
Location: Houlton,
Elevation: 492 ft
Nearby Weather Stations

Elev 492 ft 46.12 °N, 67.79 °W | Updated 42 minutes ago

Light Rain
Light Rain Mist
37 °F
Feels Like 31 °F
N
8
Wind Variable Wind from North

Today
High -- | Low -- °F
--% Chance of Precip.
Yesterday
High -- | Low -- °F
Precip. -- in
5:28 AM 7:31 PM
Waxing Crescent, 47% visible
Pressure 29.61 in
Visibility 4.0 miles
Clouds Mostly Cloudy 1000 ft
Overcast 1400 ft
Windchill 31 °F
Dew Point 34 °F
Humidity 87%
Rainfall 0.00 in
Snow Depth Not available.
UV 2 out of 12
Pollen 4.30 out of 12
Air Quality Not available.
Flu Activity Regional
METAR KHUL 251453Z AUTO 35007KT 4SM -RA BR BKN010 OVC014 03/01 A2961

More Conditions Fewer Conditions

Pressure 29.61 in
Visibility 4.0 miles
Clouds Mostly Cloudy 1000 ft
Overcast 1400 ft
Windchill 31 °F
Dew Point 34 °F
Humidity 87%
Rainfall 0.00 in
Snow Depth Not available.
UV 2 out of 12
Pollen 4.30 out of 12
Air Quality Not available.
Flu Activity Regional
METAR KHUL 251453Z AUTO 35007KT 4SM -RA BR BKN010 OVC014 03/01 A2961

More Conditions Fewer Conditions

10-Day Weather Forecast

Almanac

Astronomy

Apr. 25, 2015 Rise Set
Actual Time
Civil Twilight
Nautical Twilight
Astronomical Twilight
Moon
Length of Visible Light
Length of Day
Tomorrow will be .
, % of the Moon is Illuminated

Today's Extremes

State Highs State Lows

Community

WunderPhotos

Upload Photos

1,816,714 photos uploaded!

WunderBlogs® & News

Nearby

Air Quality

  Air Quality AQ Index Pollutant
Not available.

Snow Depth

Station Depth Elevation

Earthquake Activity

City Distance Mag. Time & Date
Minimum magnitude displayed is 2.5.

Coastal Water Temperatures

Place Temperature

Stations

Nearby Weather Stations

Station Location Temp. Windchill Dew Point Humidity Wind Precip. Elev Updated Type